Lake, MI

5:31 PM EDT on May 30, 2015 (GMT -0400)
Mount Pleasant Municipal | | Change Station
CLOSE
Current Station
Airport
Location: Mount Pleasant,
Elevation: 755 ft
Nearby Weather Stations

Elev 755 ft 43.62 °N, 84.74 °W | Updated 12 minutes ago

Rain
Rain
52 °F
Feels Like 52 °F
N
13
Wind Variable Wind from North
Gusts 21 mph

Today
High -- | Low -- °F
--% Chance of Precip.
Yesterday
High -- | Low -- °F
Precip. -- in
6:01 AM 9:13 PM
Waxing Gibbous, 92% visible
Pressure 30.09 in
Visibility 10.0 miles
Clouds Scattered Clouds 1000 ft
Mostly Cloudy 1600 ft
Overcast 2900 ft
Dew Point 49 °F
Humidity 90%
Rainfall 0.53 in
Snow Depth Not available.
UV 2 out of 12
Pollen 4.20 out of 12
Air Quality Not available.
Flu Activity Sporadic
METAR KMOP 302119Z AUTO 36011G18KT 10SM -RA SCT010 BKN016 OVC029 11/10 A3009 RMK AO2 P0001 T01110096

More Conditions Fewer Conditions

Pressure 30.09 in
Visibility 10.0 miles
Clouds Scattered Clouds 1000 ft
Mostly Cloudy 1600 ft
Overcast 2900 ft
Dew Point 49 °F
Humidity 90%
Rainfall 0.53 in
Snow Depth Not available.
UV 2 out of 12
Pollen 4.20 out of 12
Air Quality Not available.
Flu Activity Sporadic
METAR KMOP 302119Z AUTO 36011G18KT 10SM -RA SCT010 BKN016 OVC029 11/10 A3009 RMK AO2 P0001 T01110096

More Conditions Fewer Conditions

10-Day Weather Forecast

Almanac

Astronomy

May. 30, 2015 Rise Set
Actual Time
Civil Twilight
Nautical Twilight
Astronomical Twilight
Moon
Length of Visible Light
Length of Day
Tomorrow will be .
, % of the Moon is Illuminated

Today's Extremes

State Highs State Lows

Community

WunderPhotos

Upload Photos

1,825,606 photos uploaded!

WunderBlogs® & News

Nearby

Air Quality

  Air Quality AQ Index Pollutant
Not available.

Snow Depth

Station Depth Elevation

Earthquake Activity

City Distance Mag. Time & Date
Minimum magnitude displayed is 2.5.

Coastal Water Temperatures

Place Temperature

Stations

Nearby Weather Stations

Station Location Temp. Windchill Dew Point Humidity Wind Precip. Elev Updated Type